createdAt,value
2022-08-02T00:01:37.465Z,0.98
2022-08-02T00:04:22.781Z,0.73
2022-08-02T00:07:08.514Z,1.00
2022-08-02T00:09:54.057Z,0.70
2022-08-02T00:12:39.973Z,0.80
2022-08-02T00:15:25.385Z,0.90
2022-08-02T00:18:11.270Z,0.90
2022-08-02T00:20:56.885Z,1.05
2022-08-02T00:24:05.004Z,1.10
2022-08-02T00:26:48.004Z,0.93
2022-08-02T00:29:33.580Z,1.00
2022-08-02T00:32:18.917Z,1.20
2022-08-02T00:35:05.062Z,0.90
2022-08-02T00:37:50.429Z,0.68
2022-08-02T00:40:36.025Z,1.10
2022-08-02T00:43:21.595Z,1.08
2022-08-02T00:46:06.969Z,0.90
2022-08-02T00:48:52.546Z,1.00
2022-08-02T00:51:39.732Z,0.90
2022-08-02T00:54:25.008Z,0.98
2022-08-02T00:57:10.693Z,1.00
2022-08-02T00:59:55.717Z,1.10
2022-08-02T01:02:42.024Z,1.27
2022-08-02T01:05:28.178Z,1.00
2022-08-02T01:08:13.428Z,1.17
2022-08-02T01:10:59.146Z,0.95
2022-08-02T01:13:44.711Z,1.30
2022-08-02T01:16:33.442Z,1.30
2022-08-02T01:19:31.219Z,1.35
2022-08-02T01:22:34.537Z,1.15
2022-08-02T01:25:43.678Z,1.20
2022-08-02T01:28:36.309Z,1.10
2022-08-02T01:31:44.496Z,1.52
2022-08-02T01:34:50.944Z,1.20
2022-08-02T01:37:43.268Z,1.10
2022-08-02T01:43:17.317Z,1.33
2022-08-02T01:46:05.044Z,1.33
2022-08-02T01:48:53.444Z,1.08
2022-08-02T01:52:00.353Z,1.05
2022-08-02T01:54:49.681Z,1.30
2022-08-02T01:57:41.816Z,1.25
2022-08-02T02:00:31.786Z,1.23
2022-08-02T02:03:21.969Z,1.20
2022-08-02T02:06:09.877Z,1.48
2022-08-02T02:08:56.481Z,1.35
2022-08-02T02:12:11.861Z,1.15
2022-08-02T02:14:53.494Z,1.10
2022-08-02T02:17:57.086Z,1.33
2022-08-02T02:20:49.301Z,1.10
2022-08-02T02:23:35.663Z,1.48
2022-08-02T02:26:31.505Z,1.00
2022-08-02T02:29:21.896Z,1.00
2022-08-02T02:32:07.668Z,1.00
2022-08-02T02:34:54.065Z,1.10
2022-08-02T02:37:41.250Z,1.10
2022-08-02T02:40:28.799Z,1.10
2022-08-02T02:43:15.560Z,1.02
2022-08-02T02:46:05.084Z,1.13
2022-08-02T02:48:52.106Z,1.23
2022-08-02T02:51:40.613Z,0.88
2022-08-02T02:54:34.283Z,1.20
2022-08-02T02:57:21.935Z,1.30
2022-08-02T03:00:12.799Z,1.50
2022-08-02T03:02:58.192Z,1.30
2022-08-02T03:05:43.502Z,1.02
2022-08-02T03:08:29.477Z,1.23
2022-08-02T03:11:15.793Z,1.00
2022-08-02T03:14:03.155Z,1.02
2022-08-02T03:16:50.427Z,1.00
2022-08-02T03:19:35.819Z,1.08
2022-08-02T03:22:21.303Z,1.00
2022-08-02T03:25:08.876Z,1.20
2022-08-02T03:27:54.208Z,0.90
2022-08-02T03:30:39.565Z,1.33
2022-08-02T03:33:26.586Z,0.95
2022-08-02T03:36:18.022Z,1.10
2022-08-02T03:39:04.208Z,0.90
2022-08-02T03:41:50.164Z,1.05
2022-08-02T03:44:39.385Z,0.95
2022-08-02T03:47:25.929Z,1.00
2022-08-02T03:50:13.436Z,1.40
2022-08-02T03:52:59.857Z,0.95
2022-08-02T03:55:45.374Z,1.05
2022-08-02T03:58:30.793Z,1.10
2022-08-02T04:01:16.503Z,0.90
2022-08-02T04:04:02.362Z,1.20
2022-08-02T04:06:48.181Z,1.00
2022-08-02T04:09:33.713Z,0.80
2022-08-02T04:12:18.966Z,0.80
2022-08-02T04:15:07.011Z,1.02
2022-08-02T04:17:56.964Z,0.88
2022-08-02T04:20:44.444Z,1.10
2022-08-02T04:23:32.965Z,1.02
2022-08-02T04:26:26.819Z,1.10
2022-08-02T04:29:14.835Z,1.08
2022-08-02T04:32:00.866Z,0.98
2022-08-02T04:35:11.421Z,1.40
2022-08-02T04:38:05.494Z,1.15
2022-08-02T04:40:55.948Z,0.90
2022-08-02T04:43:41.486Z,1.13
2022-08-02T04:46:26.877Z,1.05
2022-08-02T04:49:12.538Z,1.10
2022-08-02T04:51:58.097Z,1.10
2022-08-02T04:54:43.734Z,1.10
2022-08-02T04:57:52.585Z,0.95
2022-08-02T05:00:38.888Z,1.20
2022-08-02T05:03:24.434Z,1.25
2022-08-02T05:06:19.384Z,0.90
2022-08-02T05:09:05.212Z,1.08
2022-08-02T05:11:53.310Z,1.20
2022-08-02T05:14:40.364Z,0.90
2022-08-02T05:17:25.835Z,0.90
2022-08-02T05:20:13.361Z,0.80
2022-08-02T05:22:58.665Z,1.25
2022-08-02T05:25:44.005Z,1.00
2022-08-02T05:28:29.933Z,0.75
2022-08-02T05:31:17.172Z,0.80
2022-08-02T05:34:02.731Z,1.00
2022-08-02T05:36:48.216Z,1.08
2022-08-02T05:39:33.579Z,0.70
2022-08-02T05:42:19.151Z,0.80
2022-08-02T05:45:05.627Z,1.10
2022-08-02T05:47:51.884Z,1.20
2022-08-02T05:50:44.248Z,1.00
2022-08-02T05:53:32.421Z,0.88
2022-08-02T05:56:37.298Z,0.95
2022-08-02T05:59:36.534Z,1.02
2022-08-02T06:02:54.999Z,0.73
2022-08-02T06:05:41.727Z,1.02
2022-08-02T06:08:39.347Z,0.73
2022-08-02T06:11:33.613Z,0.70
2022-08-02T06:14:19.701Z,0.80
2022-08-02T06:17:05.506Z,0.90
2022-08-02T06:19:53.649Z,1.00
2022-08-02T06:22:42.985Z,1.05
2022-08-02T06:25:50.423Z,1.23
2022-08-02T06:28:38.188Z,1.10
2022-08-02T06:31:23.688Z,1.10
2022-08-02T06:34:09.345Z,0.77
2022-08-02T06:37:07.601Z,0.90
2022-08-02T06:40:06.942Z,1.15
2022-08-02T06:43:11.452Z,1.25
2022-08-02T06:45:56.790Z,1.10
2022-08-02T06:49:03.157Z,1.40
2022-08-02T06:51:48.440Z,1.30
2022-08-02T06:54:36.053Z,1.00
2022-08-02T06:57:21.551Z,1.30
2022-08-02T07:00:09.519Z,1.10
2022-08-02T07:02:55.029Z,1.13
2022-08-02T07:05:41.726Z,1.20
2022-08-02T07:08:31.757Z,1.35
2022-08-02T07:11:19.233Z,1.50
2022-08-02T07:14:04.648Z,1.30
2022-08-02T07:16:50.188Z,1.20
2022-08-02T07:19:37.609Z,1.35
2022-08-02T07:22:24.398Z,1.10
2022-08-02T07:25:10.613Z,1.13
2022-08-02T07:27:56.561Z,1.52
2022-08-02T07:30:42.765Z,1.40
2022-08-02T07:33:38.687Z,1.20
2022-08-02T07:36:25.521Z,1.50
2022-08-02T07:39:11.229Z,1.70
2022-08-02T07:41:57.035Z,1.40
2022-08-02T07:44:45.105Z,1.50
2022-08-02T07:47:32.636Z,1.50
2022-08-02T07:50:19.542Z,1.40
2022-08-02T07:53:04.922Z,1.40
2022-08-02T07:55:51.203Z,1.33
2022-08-02T07:58:36.320Z,1.77
2022-08-02T08:01:22.062Z,1.52
2022-08-02T08:04:07.694Z,1.95
2022-08-02T08:06:54.018Z,1.95
2022-08-02T08:09:41.817Z,1.67
2022-08-02T08:12:28.026Z,1.85
2022-08-02T08:15:13.601Z,1.77
2022-08-02T08:17:58.852Z,1.55
2022-08-02T08:20:44.333Z,1.70
2022-08-02T08:23:29.848Z,2.25
2022-08-02T08:26:16.157Z,2.10
2022-08-02T08:29:01.884Z,2.47
2022-08-02T08:31:48.006Z,1.70
2022-08-02T08:34:34.811Z,1.88
2022-08-02T08:37:20.128Z,2.05
2022-08-02T08:40:06.976Z,2.20
2022-08-02T08:42:52.943Z,2.50
2022-08-02T08:45:38.466Z,2.70
2022-08-02T08:48:31.062Z,2.60
2022-08-02T08:51:21.129Z,2.15
2022-08-02T08:54:09.864Z,2.30
2022-08-02T08:56:56.054Z,2.13
2022-08-02T08:59:41.367Z,2.13
2022-08-02T09:02:28.501Z,2.35
2022-08-02T09:05:16.646Z,2.40
2022-08-02T09:08:01.919Z,3.03
2022-08-02T14:24:33.881Z,1.10
2022-08-02T14:27:19.422Z,1.30
2022-08-02T14:30:05.275Z,1.10
2022-08-02T14:32:50.897Z,1.35
2022-08-02T14:35:36.285Z,1.30
2022-08-02T14:38:23.247Z,1.65
2022-08-02T14:41:08.560Z,1.52
2022-08-02T14:44:06.178Z,2.30
2022-08-02T14:46:52.724Z,2.08
2022-08-02T14:49:42.326Z,2.13
2022-08-02T14:52:31.315Z,1.98
2022-08-02T14:55:17.463Z,1.80
2022-08-02T14:58:02.800Z,1.95
2022-08-02T15:00:48.269Z,1.80
2022-08-02T15:03:43.376Z,2.00
2022-08-02T15:06:32.813Z,1.60
2022-08-02T15:09:18.110Z,1.70
2022-08-02T15:12:05.683Z,1.65
2022-08-02T15:14:52.316Z,1.40
2022-08-02T15:17:37.754Z,1.77
2022-08-02T15:20:26.132Z,1.50
2022-08-02T15:23:11.849Z,2.03
2022-08-02T15:25:58.755Z,1.65
2022-08-02T15:28:44.224Z,1.50
2022-08-02T15:31:33.379Z,1.73
2022-08-02T15:34:19.179Z,1.73
2022-08-02T15:37:04.909Z,1.70
2022-08-02T15:39:49.963Z,1.80
2022-08-02T15:42:35.566Z,1.33
2022-08-02T15:45:20.677Z,1.95
2022-08-02T15:48:07.514Z,1.83
2022-08-02T15:50:52.649Z,1.40
2022-08-02T15:53:38.093Z,1.20
2022-08-02T15:56:24.353Z,1.40
2022-08-02T15:59:10.090Z,1.48
2022-08-02T16:01:55.182Z,1.20
2022-08-02T16:04:41.378Z,1.40
2022-08-02T16:07:27.769Z,1.42
2022-08-02T16:10:14.186Z,1.40
2022-08-02T16:13:19.132Z,1.35
2022-08-02T16:16:04.948Z,1.70
2022-08-02T16:18:50.427Z,1.50
2022-08-02T16:21:35.777Z,1.80
2022-08-02T16:24:21.702Z,1.45
2022-08-02T16:27:08.538Z,1.50
2022-08-02T16:29:54.527Z,1.27
2022-08-02T16:32:40.273Z,1.40
2022-08-02T16:35:25.471Z,1.73
2022-08-02T16:38:11.075Z,1.20
2022-08-02T16:41:01.185Z,1.50
2022-08-02T16:43:47.273Z,1.50
2022-08-02T16:46:32.838Z,1.55
2022-08-02T16:50:06.696Z,1.80
2022-08-02T16:52:23.900Z,1.42
2022-08-02T16:55:11.422Z,1.55
2022-08-02T16:57:57.077Z,1.67
2022-08-02T17:00:46.496Z,1.38
2022-08-02T17:03:56.507Z,1.40
2022-08-02T17:06:38.944Z,1.40
2022-08-02T17:10:02.989Z,1.33
2022-08-02T17:12:39.572Z,1.50
2022-08-02T17:16:07.774Z,1.52
2022-08-02T17:18:30.555Z,1.65
2022-08-02T17:21:15.941Z,1.67
2022-08-02T17:24:08.594Z,1.52
2022-08-02T17:26:54.140Z,1.48
2022-08-02T17:29:42.078Z,1.60
2022-08-02T17:32:29.291Z,1.40
2022-08-02T17:35:16.507Z,1.77
2022-08-02T17:38:02.048Z,1.60
2022-08-02T17:40:50.900Z,1.85
2022-08-02T17:43:39.537Z,1.70
2022-08-02T17:46:26.440Z,1.75
2022-08-02T17:49:16.433Z,1.70
2022-08-02T17:52:15.786Z,1.30
2022-08-02T17:55:10.514Z,1.30
2022-08-02T17:57:58.470Z,1.92
2022-08-02T18:00:45.075Z,1.00
2022-08-02T18:03:30.713Z,1.30
2022-08-02T18:06:17.020Z,1.20
2022-08-02T18:09:05.479Z,1.35
2022-08-02T18:11:53.376Z,0.90
2022-08-02T18:17:44.655Z,1.25
2022-08-02T18:20:30.277Z,1.05
2022-08-02T18:23:15.327Z,1.00
2022-08-02T18:26:02.234Z,1.10
2022-08-02T18:28:47.757Z,0.93
2022-08-02T18:31:39.260Z,1.30
2022-08-02T18:34:25.301Z,1.33
2022-08-02T18:37:10.687Z,1.27
2022-08-02T18:39:55.998Z,1.02
2022-08-02T18:42:41.679Z,1.10
2022-08-02T18:46:04.505Z,1.20
2022-08-02T18:48:32.669Z,1.20
2022-08-02T18:51:18.824Z,1.00
2022-08-02T18:54:04.873Z,1.20
2022-08-02T18:56:50.487Z,0.73
2022-08-02T18:59:37.592Z,1.20
2022-08-02T19:02:24.926Z,1.13
2022-08-02T19:05:13.280Z,1.20
2022-08-02T19:08:00.982Z,1.08
2022-08-02T19:10:49.431Z,1.20
2022-08-02T19:13:40.747Z,1.45
2022-08-02T19:16:36.660Z,1.00
2022-08-02T19:19:22.519Z,1.20
2022-08-02T19:22:17.617Z,1.00
2022-08-02T19:25:05.837Z,1.00
2022-08-02T19:27:55.120Z,1.00
2022-08-02T19:30:42.992Z,0.90
2022-08-02T19:34:04.442Z,1.15
2022-08-02T19:36:35.106Z,1.00
2022-08-02T19:39:20.603Z,1.00
2022-08-02T19:42:08.527Z,0.85
2022-08-02T19:44:54.578Z,1.38
2022-08-02T19:47:40.926Z,1.05
2022-08-02T19:50:40.358Z,1.10
2022-08-02T19:53:48.804Z,1.30
2022-08-02T19:56:34.517Z,1.08
2022-08-02T19:59:20.190Z,1.00
2022-08-02T20:02:06.567Z,1.20
2022-08-02T20:04:53.129Z,1.10
2022-08-02T20:07:54.251Z,1.23
2022-08-02T20:10:42.248Z,0.90
2022-08-02T20:13:34.639Z,1.10
2022-08-02T20:16:36.247Z,0.95
2022-08-02T20:19:22.852Z,0.77
2022-08-02T20:22:08.566Z,0.90
2022-08-02T20:24:54.011Z,0.75
2022-08-02T20:27:39.493Z,0.85
2022-08-02T20:30:39.939Z,0.95
2022-08-02T20:33:24.868Z,0.88
2022-08-02T20:36:10.365Z,0.80
2022-08-02T20:38:55.908Z,1.08
2022-08-02T20:41:45.772Z,0.90
2022-08-02T20:44:34.396Z,1.00
2022-08-02T20:47:20.085Z,1.00
2022-08-02T20:50:32.685Z,1.10
2022-08-02T20:53:25.369Z,0.95
2022-08-02T20:56:14.000Z,1.00
2022-08-02T20:59:04.027Z,0.80
2022-08-02T21:02:01.171Z,1.00
2022-08-02T21:04:46.507Z,1.10
2022-08-02T21:07:31.676Z,1.10
2022-08-02T21:10:17.811Z,0.90
2022-08-02T21:13:22.230Z,0.93
2022-08-02T21:16:10.346Z,0.80
2022-08-02T21:19:00.168Z,1.10
2022-08-02T21:21:46.107Z,1.15
2022-08-02T21:24:31.458Z,1.20
2022-08-02T21:27:51.454Z,1.67
2022-08-02T21:30:24.152Z,1.13
2022-08-02T21:33:23.106Z,0.90
2022-08-02T21:36:09.191Z,1.00
2022-08-02T21:38:57.873Z,1.15
2022-08-02T21:41:46.331Z,1.08
2022-08-02T21:44:32.964Z,1.00
2022-08-02T21:47:27.310Z,1.38
2022-08-02T21:50:16.446Z,1.40
2022-08-02T21:53:01.941Z,1.10
2022-08-02T21:56:01.159Z,1.40
2022-08-02T21:58:48.040Z,1.42
2022-08-02T22:01:35.475Z,1.38
2022-08-02T22:04:21.873Z,1.23
2022-08-02T22:07:07.239Z,1.50
2022-08-02T22:09:53.287Z,1.00
2022-08-02T22:12:38.581Z,1.08
2022-08-02T22:15:25.809Z,1.33
2022-08-02T22:18:27.070Z,1.30
2022-08-02T22:21:16.808Z,1.13
2022-08-02T22:24:02.767Z,1.00
2022-08-02T22:26:47.849Z,1.10
2022-08-02T22:29:33.671Z,1.02
2022-08-02T22:32:40.104Z,0.88
2022-08-02T22:35:25.376Z,1.00
2022-08-02T22:38:15.320Z,1.10
2022-08-02T22:41:03.226Z,1.10
2022-08-02T22:43:49.378Z,1.00
2022-08-02T22:46:35.254Z,1.25
2022-08-02T22:49:38.025Z,1.25
2022-08-02T22:52:27.748Z,0.90
2022-08-02T22:55:12.749Z,0.90
2022-08-02T22:57:59.501Z,1.10
2022-08-02T22:58:43.502Z,1.05
2022-08-02T23:00:45.316Z,1.38
2022-08-02T23:03:31.105Z,0.98
2022-08-02T23:06:19.093Z,1.10
2022-08-02T23:11:54.133Z,1.40
2022-08-02T23:14:39.774Z,0.93
2022-08-02T23:17:43.620Z,1.20
2022-08-02T23:20:29.103Z,1.10
2022-08-02T23:23:14.490Z,1.13
2022-08-02T23:26:00.697Z,1.02
2022-08-02T23:28:45.751Z,1.70
2022-08-02T23:31:38.331Z,1.27
2022-08-02T23:34:24.144Z,1.60
2022-08-02T23:37:10.047Z,1.05
2022-08-02T23:39:55.302Z,1.30
2022-08-02T23:42:40.808Z,1.10
2022-08-02T23:45:26.123Z,1.20
2022-08-02T23:48:21.749Z,1.20
2022-08-02T23:51:07.175Z,1.20
2022-08-02T23:53:52.903Z,0.90
2022-08-02T23:56:38.843Z,1.15
2022-08-02T23:59:24.756Z,1.00
